CheckWX is a tool to help pilots better visualize weather data.  It is not intended as a substitute for an official pre-flight weather briefing.

22:14:35 UTC

KBRY METAR
Samuels Field Airport
Bardstown, Kentucky, USA
Current

20 mins ago

KBRY 052155Z AUTO 36005KT 10SM CLR 20/11 A3004 RMK AO1
Observed
Apr-5 @ 21:55 UTC
Wind
  • 360° at 5 KTS
Visibility
Flight Rules
VFR
Cloud Levels
  • Clear skies
Temperature
20°C / 68°F
Dewpoint
11°C / 52°F
Humidity
56%
Altimeter
30.04" Hg
Pressure
1017.32 hPa
Previous

40 mins ago

KBRY 052135Z AUTO 03008KT 10SM CLR 21/11 A3003 RMK AO1
Observed
Apr-5 @ 21:35 UTC
Wind
  • 030° at 8 KTS
Visibility
Flight Rules
VFR
Cloud Levels
  • Clear skies
Temperature
21°C / 70°F
Dewpoint
11°C / 52°F
Humidity
53%
Altimeter
30.03" Hg
Pressure
1016.92 hPa
Previous

60 mins ago

KBRY 052115Z AUTO 01009KT 10SM SCT048 SCT075 21/11 A3003 RMK AO1
Observed
Apr-5 @ 21:15 UTC
Wind
  • 010° at 9 KTS
Visibility
Flight Rules
VFR
Cloud Levels
  • Scattered at 4,800' AGL
  • Scattered at 7,500' AGL
Temperature
21°C / 70°F
Dewpoint
11°C / 52°F
Humidity
53%
Altimeter
30.03" Hg
Pressure
1016.92 hPa